createdAt,value
2018-07-19T00:01:04.380Z,2.43
2018-07-19T00:03:32.593Z,2.20
2018-07-19T00:06:00.797Z,2.20
2018-07-19T00:08:29.004Z,2.37
2018-07-19T00:10:57.213Z,2.33
2018-07-19T00:13:25.457Z,2.60
2018-07-19T00:15:53.697Z,2.63
2018-07-19T00:18:25.179Z,2.37
2018-07-19T00:20:54.297Z,2.50
2018-07-19T00:23:22.837Z,2.33
2018-07-19T00:25:51.246Z,2.33
2018-07-19T00:28:19.465Z,2.50
2018-07-19T00:30:47.682Z,2.60
2018-07-19T00:33:15.957Z,2.40
2018-07-19T00:35:44.273Z,2.87
2018-07-19T00:38:12.629Z,2.13
2018-07-19T00:40:40.841Z,2.20
2018-07-19T00:43:09.142Z,2.63
2018-07-19T00:45:37.337Z,2.60
2018-07-19T00:48:05.569Z,2.80
2018-07-19T00:50:33.850Z,2.60
2018-07-19T00:53:02.506Z,2.33
2018-07-19T00:55:30.697Z,2.57
2018-07-19T00:57:59.013Z,2.67
2018-07-19T01:00:27.285Z,3.00
2018-07-19T01:02:55.481Z,2.70
2018-07-19T01:05:23.710Z,2.57
2018-07-19T01:07:51.933Z,2.70
2018-07-19T01:10:20.113Z,2.80
2018-07-19T01:12:48.322Z,3.13
2018-07-19T01:15:16.533Z,2.87
2018-07-19T01:17:44.765Z,3.00
2018-07-19T01:20:13.001Z,2.63
2018-07-19T01:22:41.222Z,2.77
2018-07-19T01:25:09.429Z,3.20
2018-07-19T01:27:37.622Z,3.00
2018-07-19T01:30:06.065Z,2.90
2018-07-19T01:32:34.410Z,2.70
2018-07-19T01:35:02.628Z,3.20
2018-07-19T01:37:30.941Z,3.17
2018-07-19T01:39:59.138Z,3.67
2018-07-19T01:42:34.803Z,3.80
2018-07-19T01:45:03.014Z,4.10
2018-07-19T01:47:31.194Z,4.00
2018-07-19T01:49:59.378Z,3.30
2018-07-19T01:52:27.610Z,4.20
2018-07-19T01:54:55.790Z,4.13
2018-07-19T01:57:23.750Z,3.87
2018-07-19T01:59:51.945Z,4.07
2018-07-19T02:02:20.343Z,3.80
2018-07-19T02:04:48.550Z,3.57
2018-07-19T02:07:16.738Z,3.60
2018-07-19T02:09:44.950Z,3.93
2018-07-19T02:12:13.174Z,3.80
2018-07-19T02:14:41.364Z,3.87
2018-07-19T02:17:09.538Z,4.30
2018-07-19T02:19:37.732Z,3.50
2018-07-19T02:22:05.928Z,3.97
2018-07-19T02:24:34.132Z,3.87
2018-07-19T02:27:02.395Z,4.00
2018-07-19T02:29:30.595Z,3.93
2018-07-19T02:31:58.780Z,4.27
2018-07-19T02:34:26.986Z,4.00
2018-07-19T02:36:55.175Z,4.43
2018-07-19T02:39:23.367Z,4.47
2018-07-19T02:41:51.595Z,5.13
2018-07-19T02:44:19.811Z,4.67
2018-07-19T02:46:47.990Z,4.27
2018-07-19T02:49:16.168Z,4.63
2018-07-19T02:51:44.427Z,4.07
2018-07-19T02:54:12.869Z,4.53
2018-07-19T02:56:41.111Z,4.93
2018-07-19T02:59:09.303Z,4.87
2018-07-19T03:01:37.495Z,4.80
2018-07-19T03:04:05.663Z,4.80
2018-07-19T03:06:33.913Z,4.97
2018-07-19T03:09:02.037Z,4.70
2018-07-19T03:11:30.232Z,4.93
2018-07-19T03:13:58.431Z,4.60
2018-07-19T03:16:26.640Z,4.40
2018-07-19T03:18:54.895Z,5.30
2018-07-19T03:21:23.076Z,4.40
2018-07-19T03:23:51.284Z,5.30
2018-07-19T03:26:19.492Z,5.37
2018-07-19T03:28:47.691Z,5.03
2018-07-19T03:31:15.881Z,5.17
2018-07-19T03:33:44.179Z,5.30
2018-07-19T03:36:12.372Z,5.00
2018-07-19T03:38:40.595Z,5.40
2018-07-19T03:41:08.816Z,4.97
2018-07-19T03:43:37.044Z,4.93
2018-07-19T03:46:05.348Z,5.20
2018-07-19T03:48:33.569Z,5.20
2018-07-19T03:51:01.772Z,4.90
2018-07-19T03:53:29.999Z,5.10
2018-07-19T03:55:58.296Z,5.20
2018-07-19T03:58:26.488Z,5.00
2018-07-19T04:00:54.769Z,5.40
2018-07-19T04:03:22.968Z,5.13
2018-07-19T04:05:51.177Z,4.67
2018-07-19T04:08:19.385Z,5.70
2018-07-19T04:10:47.597Z,4.60
2018-07-19T04:13:15.817Z,4.20
2018-07-19T04:15:44.032Z,4.73
2018-07-19T04:18:12.301Z,4.87
2018-07-19T04:20:40.488Z,4.93
2018-07-19T04:23:08.661Z,5.10
2018-07-19T04:25:36.849Z,5.23
2018-07-19T04:28:05.038Z,4.77
2018-07-19T04:30:33.280Z,5.00
2018-07-19T04:33:01.500Z,4.43
2018-07-19T04:35:29.802Z,4.87
2018-07-19T04:37:57.974Z,4.80
2018-07-19T04:40:26.218Z,5.00
2018-07-19T04:42:54.447Z,4.73
2018-07-19T04:45:22.658Z,4.47
2018-07-19T04:47:50.911Z,4.30
2018-07-19T04:50:19.098Z,4.60
2018-07-19T04:52:47.455Z,4.90
2018-07-19T04:55:15.734Z,5.10
2018-07-19T04:57:43.946Z,4.83
2018-07-19T05:00:12.215Z,4.53
2018-07-19T05:02:40.619Z,4.80
2018-07-19T05:05:08.863Z,4.70
2018-07-19T05:07:37.143Z,5.07
2018-07-19T05:10:05.430Z,5.13
2018-07-19T05:12:33.647Z,4.90
2018-07-19T05:15:01.867Z,5.07
2018-07-19T05:17:30.115Z,4.80
2018-07-19T05:19:58.331Z,5.07
2018-07-19T05:22:26.559Z,4.90
2018-07-19T05:24:55.095Z,4.70
2018-07-19T05:27:23.335Z,5.13
2018-07-19T05:29:51.631Z,5.10
2018-07-19T05:32:19.859Z,4.80
2018-07-19T05:34:48.112Z,4.67
2018-07-19T05:37:16.335Z,5.00
2018-07-19T05:39:44.564Z,4.20
2018-07-19T05:42:12.893Z,5.00
2018-07-19T05:44:41.072Z,4.73
2018-07-19T05:47:09.360Z,4.93
2018-07-19T05:49:37.552Z,5.03
2018-07-19T05:52:05.792Z,4.77
2018-07-19T05:54:34.004Z,4.87
2018-07-19T05:57:02.207Z,4.67
2018-07-19T05:59:30.456Z,4.80
2018-07-19T06:01:58.720Z,4.90
2018-07-19T06:04:26.991Z,4.50
2018-07-19T06:06:55.457Z,4.80
2018-07-19T06:09:23.756Z,4.63
2018-07-19T06:11:52.005Z,4.40
2018-07-19T06:14:20.276Z,4.77
2018-07-19T06:16:48.524Z,4.50
2018-07-19T06:19:16.949Z,4.20
2018-07-19T06:21:45.224Z,4.20
2018-07-19T06:24:13.459Z,4.37
2018-07-19T06:26:41.665Z,4.00
2018-07-19T06:29:09.856Z,4.00
2018-07-19T06:31:38.089Z,3.90
2018-07-19T06:34:06.013Z,3.40
2018-07-19T06:36:34.297Z,3.77
2018-07-19T06:39:02.817Z,3.70
2018-07-19T06:41:31.113Z,4.20
2018-07-19T06:43:59.396Z,3.67
2018-07-19T06:46:27.707Z,3.17
2018-07-19T06:48:55.981Z,3.30
2018-07-19T06:51:24.205Z,3.43
2018-07-19T06:53:52.436Z,3.20
2018-07-19T06:56:20.712Z,2.77
2018-07-19T06:58:48.960Z,2.80
2018-07-19T07:01:17.265Z,2.60
2018-07-19T07:03:45.502Z,2.50
2018-07-19T07:06:13.713Z,2.40
2018-07-19T07:08:41.953Z,2.20
2018-07-19T07:11:10.165Z,2.53
2018-07-19T07:13:38.429Z,2.20
2018-07-19T07:16:06.658Z,2.50
2018-07-19T07:18:34.861Z,2.40
2018-07-19T07:21:03.131Z,2.40
2018-07-19T07:23:31.340Z,2.40
2018-07-19T07:25:59.605Z,2.40
2018-07-19T07:28:27.851Z,2.53
2018-07-19T07:30:56.097Z,2.30
2018-07-19T07:33:24.317Z,2.33
2018-07-19T07:35:52.530Z,2.30
2018-07-19T07:38:20.969Z,2.07
2018-07-19T07:40:49.509Z,2.23
2018-07-19T07:43:17.694Z,2.37
2018-07-19T07:45:45.906Z,2.50
2018-07-19T07:48:14.177Z,2.27
2018-07-19T07:50:42.392Z,2.20
2018-07-19T07:53:10.697Z,2.13
2018-07-19T07:55:38.946Z,2.40
2018-07-19T07:58:07.132Z,2.37
2018-07-19T08:00:35.626Z,2.57
2018-07-19T08:03:03.874Z,2.83
2018-07-19T08:05:32.153Z,2.23
2018-07-19T08:08:00.349Z,2.33
2018-07-19T08:10:28.550Z,2.57
2018-07-19T08:12:56.694Z,2.37
2018-07-19T08:15:24.916Z,2.10
2018-07-19T08:17:53.111Z,2.40
2018-07-19T08:20:21.914Z,2.27
2018-07-19T08:22:50.130Z,2.30
2018-07-19T08:25:18.514Z,2.17
2018-07-19T08:27:46.737Z,2.40
2018-07-19T08:30:15.045Z,2.60
2018-07-19T08:32:43.240Z,2.57
2018-07-19T08:35:11.434Z,2.57
2018-07-19T08:37:39.647Z,2.50
2018-07-19T08:40:07.886Z,2.57
2018-07-19T08:42:36.139Z,2.50
2018-07-19T08:45:04.739Z,2.30
2018-07-19T08:47:32.967Z,2.53
2018-07-19T08:50:01.143Z,2.30
2018-07-19T08:52:29.423Z,2.87
2018-07-19T08:54:57.615Z,2.30
2018-07-19T08:57:25.803Z,1.90
2018-07-19T08:59:54.105Z,2.60
2018-07-19T09:02:22.455Z,2.33
2018-07-19T09:04:50.683Z,2.30
2018-07-19T09:07:18.886Z,2.60
2018-07-19T09:09:47.102Z,2.60
2018-07-19T09:12:15.403Z,2.27
2018-07-19T09:14:43.843Z,2.37
2018-07-19T09:17:12.123Z,2.30
2018-07-19T09:19:40.357Z,2.63
2018-07-19T09:22:08.554Z,2.60
2018-07-19T09:24:36.823Z,2.37
2018-07-19T09:27:04.999Z,2.00
2018-07-19T09:29:33.190Z,2.07
2018-07-19T09:32:01.439Z,2.40
2018-07-19T09:34:29.703Z,2.60
2018-07-19T09:36:57.957Z,2.20
2018-07-19T09:39:26.168Z,2.53
2018-07-19T09:41:54.473Z,2.43
2018-07-19T09:44:22.635Z,2.30
2018-07-19T09:46:50.791Z,2.30
2018-07-19T09:49:18.979Z,2.77
2018-07-19T09:51:47.152Z,2.27
2018-07-19T09:54:26.763Z,2.43
2018-07-19T09:56:55.035Z,2.37
2018-07-19T09:59:23.387Z,2.43
2018-07-19T10:01:51.564Z,2.50
2018-07-19T10:04:19.787Z,2.67
2018-07-19T10:06:48.035Z,2.33
2018-07-19T10:09:16.288Z,2.52
2018-07-19T10:11:44.584Z,2.87
2018-07-19T10:14:12.790Z,2.60
2018-07-19T10:16:41.028Z,2.80
2018-07-19T10:19:09.220Z,2.77
2018-07-19T10:21:37.415Z,2.62
2018-07-19T10:24:05.584Z,2.50
2018-07-19T10:26:33.833Z,2.55
2018-07-19T10:29:01.961Z,2.95
2018-07-19T10:31:30.116Z,3.00
2018-07-19T10:33:58.700Z,3.15
2018-07-19T10:36:27.027Z,3.02
2018-07-19T10:38:55.217Z,2.90
2018-07-19T10:41:23.476Z,3.52
2018-07-19T10:43:51.660Z,2.70
2018-07-19T10:46:19.952Z,2.77
2018-07-19T10:48:48.175Z,2.90
2018-07-19T10:51:16.367Z,3.60
2018-07-19T10:53:44.569Z,3.17
2018-07-19T10:56:12.803Z,2.90
2018-07-19T10:58:40.984Z,2.85
2018-07-19T11:01:09.393Z,3.27
2018-07-19T11:03:37.568Z,2.85
2018-07-19T11:06:05.785Z,3.08
2018-07-19T11:08:34.042Z,3.35
2018-07-19T11:11:02.244Z,3.20
2018-07-19T11:13:30.437Z,2.87
2018-07-19T11:15:58.617Z,3.00
2018-07-19T11:18:26.617Z,3.17
2018-07-19T11:20:54.820Z,3.25
2018-07-19T11:23:23.469Z,2.87
2018-07-19T11:25:51.693Z,3.00
2018-07-19T11:28:19.943Z,3.15
2018-07-19T11:30:48.089Z,2.83
2018-07-19T11:33:16.305Z,3.87
2018-07-19T11:35:44.514Z,3.50
2018-07-19T11:38:12.684Z,3.12
2018-07-19T11:40:40.898Z,2.75
2018-07-19T11:43:09.106Z,3.70
2018-07-19T11:45:37.285Z,3.50
2018-07-19T11:48:06.073Z,3.00
2018-07-19T11:50:34.346Z,3.10
2018-07-19T11:53:02.545Z,3.25
2018-07-19T11:55:30.834Z,3.20
2018-07-19T11:57:59.486Z,3.05
2018-07-19T12:00:27.677Z,3.60
2018-07-19T12:02:55.937Z,2.90
2018-07-19T12:05:24.141Z,3.95
2018-07-19T12:07:52.366Z,4.17
2018-07-19T12:10:20.554Z,3.00
2018-07-19T12:12:48.781Z,3.20
2018-07-19T12:15:16.983Z,3.33
2018-07-19T12:17:45.317Z,2.98
2018-07-19T12:20:13.656Z,3.72
2018-07-19T12:22:41.994Z,3.25
2018-07-19T12:25:10.195Z,3.27
2018-07-19T12:27:38.429Z,2.72
2018-07-19T12:30:07.142Z,3.25
2018-07-19T12:32:35.334Z,3.00
2018-07-19T12:35:03.506Z,3.37
2018-07-19T12:37:31.710Z,3.30
2018-07-19T12:39:59.922Z,3.35
2018-07-19T12:42:28.098Z,3.17
2018-07-19T12:44:56.313Z,2.90
2018-07-19T12:47:24.506Z,2.90
2018-07-19T12:49:52.694Z,3.30
2018-07-19T12:52:20.882Z,3.05
2018-07-19T12:54:49.055Z,3.40
2018-07-19T12:57:17.303Z,2.72
2018-07-19T12:59:45.493Z,3.00
2018-07-19T13:02:13.807Z,2.80
2018-07-19T13:04:42.047Z,3.30
2018-07-19T13:07:10.263Z,2.98
2018-07-19T13:09:38.518Z,2.90
2018-07-19T13:12:06.700Z,2.92
2018-07-19T13:14:34.898Z,3.10
2018-07-19T13:17:03.159Z,2.67
2018-07-19T13:19:31.390Z,3.37
2018-07-19T13:21:59.611Z,3.15
2018-07-19T13:24:27.811Z,3.33
2018-07-19T13:26:55.994Z,3.50
2018-07-19T13:29:24.199Z,3.10
2018-07-19T13:31:52.439Z,3.08
2018-07-19T13:34:20.635Z,3.00
2018-07-19T13:36:48.851Z,3.12
2018-07-19T13:39:17.051Z,3.20
2018-07-19T13:41:45.335Z,2.85
2018-07-19T13:44:13.501Z,3.20
2018-07-19T13:46:41.711Z,3.08
2018-07-19T13:49:09.923Z,3.10
2018-07-19T13:51:38.287Z,2.98
2018-07-19T13:54:12.807Z,3.10
2018-07-19T13:56:41.263Z,3.10
2018-07-19T13:59:09.585Z,3.12
2018-07-19T14:01:37.927Z,3.10
2018-07-19T14:04:06.328Z,2.90
2018-07-19T14:06:34.512Z,2.67
2018-07-19T14:09:03.130Z,2.45
2018-07-19T14:11:31.329Z,2.72
2018-07-19T14:14:01.585Z,3.70
2018-07-19T14:16:29.792Z,3.08
2018-07-19T14:18:57.977Z,2.90
2018-07-19T14:21:26.156Z,3.10
2018-07-19T14:23:54.484Z,3.22
2018-07-19T14:26:22.730Z,2.72
2018-07-19T14:28:50.893Z,2.95
2018-07-19T14:31:19.065Z,3.22
2018-07-19T14:33:47.241Z,3.40
2018-07-19T14:36:15.417Z,2.75
2018-07-19T14:38:43.609Z,3.10
2018-07-19T14:41:11.861Z,3.02
2018-07-19T14:43:40.104Z,2.98
2018-07-19T14:46:08.401Z,2.75
2018-07-19T14:48:36.605Z,3.05
2018-07-19T14:51:04.801Z,2.95
2018-07-19T14:53:33.025Z,2.80
2018-07-19T14:56:01.217Z,2.90
2018-07-19T14:58:29.412Z,3.08
2018-07-19T15:00:57.617Z,3.08
2018-07-19T15:03:25.769Z,2.90
2018-07-19T15:05:53.981Z,2.67
2018-07-19T15:08:22.193Z,3.20
2018-07-19T15:10:50.369Z,3.67
2018-07-19T15:13:18.590Z,3.40
2018-07-19T15:15:46.789Z,3.80
2018-07-19T15:18:14.956Z,3.37
2018-07-19T15:20:43.112Z,3.02
2018-07-19T15:23:11.380Z,3.02
2018-07-19T15:25:39.757Z,2.95
2018-07-19T15:28:07.941Z,2.90
2018-07-19T15:30:36.264Z,3.10
2018-07-19T15:33:04.463Z,3.40
2018-07-19T15:35:32.697Z,2.87
2018-07-19T15:38:00.989Z,3.50
2018-07-19T15:40:29.170Z,3.15
2018-07-19T15:42:58.361Z,3.25
2018-07-19T15:45:26.534Z,3.15
2018-07-19T15:47:54.722Z,3.30
2018-07-19T15:50:22.976Z,3.45
2018-07-19T15:52:51.117Z,3.70
2018-07-19T15:55:19.416Z,3.45
2018-07-19T15:57:47.546Z,3.40
2018-07-19T16:00:15.736Z,3.37
2018-07-19T16:02:43.914Z,3.33
2018-07-19T16:05:12.177Z,3.25
2018-07-19T16:07:40.371Z,3.30
2018-07-19T16:10:08.666Z,3.30
2018-07-19T16:12:36.850Z,3.37
2018-07-19T16:15:05.459Z,3.27
2018-07-19T16:17:33.638Z,3.55
2018-07-19T16:20:01.822Z,3.80
2018-07-19T16:22:30.011Z,3.30
2018-07-19T16:24:58.395Z,3.65
2018-07-19T16:27:26.594Z,3.50
2018-07-19T16:29:55.151Z,3.50
2018-07-19T16:32:23.400Z,3.65
2018-07-19T16:34:51.542Z,3.10
2018-07-19T16:37:19.739Z,3.58
2018-07-19T16:39:47.923Z,3.83
2018-07-19T16:42:16.187Z,3.00
2018-07-19T16:44:44.370Z,3.70
2018-07-19T16:47:12.551Z,4.15
2018-07-19T16:49:40.747Z,3.60
2018-07-19T16:52:08.927Z,3.47
2018-07-19T16:54:37.136Z,3.60
2018-07-19T16:57:05.944Z,3.80
2018-07-19T16:59:34.215Z,3.67
2018-07-19T17:02:02.385Z,3.35
2018-07-19T17:04:30.628Z,3.33
2018-07-19T17:06:58.823Z,3.72
2018-07-19T17:09:26.764Z,3.15
2018-07-19T17:11:55.012Z,3.40
2018-07-19T17:14:23.179Z,3.27
2018-07-19T17:16:51.431Z,3.60
2018-07-19T17:19:19.604Z,3.58
2018-07-19T17:21:47.791Z,3.50
2018-07-19T17:24:15.982Z,3.72
2018-07-19T17:26:44.148Z,3.37
2018-07-19T17:29:12.360Z,3.75
2018-07-19T17:31:40.555Z,3.85
2018-07-19T17:34:08.754Z,3.47
2018-07-19T17:36:36.947Z,3.62
2018-07-19T17:39:07.776Z,3.87
2018-07-19T17:41:35.963Z,3.98
2018-07-19T17:44:04.163Z,3.95
2018-07-19T17:46:32.335Z,3.67
2018-07-19T17:49:00.568Z,3.42
2018-07-19T17:51:28.746Z,3.72
2018-07-19T17:53:56.895Z,4.40
2018-07-19T17:56:25.080Z,3.80
2018-07-19T17:58:53.271Z,3.65
2018-07-19T18:01:21.439Z,3.60
2018-07-19T18:03:49.627Z,3.80
2018-07-19T18:06:17.864Z,3.52
2018-07-19T18:08:46.020Z,3.75
2018-07-19T18:11:14.187Z,3.80
2018-07-19T18:13:42.344Z,3.92
2018-07-19T18:18:45.187Z,3.45
2018-07-19T18:21:13.344Z,3.45
2018-07-19T18:23:41.500Z,3.40
2018-07-19T18:26:09.700Z,3.67
2018-07-19T18:28:37.932Z,3.40
2018-07-19T18:31:06.437Z,4.20
2018-07-19T18:33:34.617Z,3.70
2018-07-19T18:36:02.865Z,3.58
2018-07-19T18:38:31.182Z,3.40
2018-07-19T18:40:59.365Z,4.20
2018-07-19T18:43:27.630Z,3.70
2018-07-19T18:46:02.568Z,4.42
2018-07-19T18:48:30.756Z,4.75
2018-07-19T18:50:58.988Z,3.90
2018-07-19T18:53:28.040Z,4.22
2018-07-19T18:55:55.993Z,4.85
2018-07-19T18:58:23.937Z,4.10
2018-07-19T19:00:51.851Z,3.97
2018-07-19T19:03:19.785Z,6.07
2018-07-19T19:05:47.817Z,4.53
2018-07-19T19:08:15.757Z,4.60
2018-07-19T19:10:43.689Z,4.30
2018-07-19T19:13:11.861Z,4.87
2018-07-19T19:15:40.069Z,4.03
2018-07-19T19:18:08.237Z,3.97
2018-07-19T19:20:36.413Z,3.80
2018-07-19T19:23:04.609Z,4.50
2018-07-19T19:25:32.794Z,3.73
2018-07-19T19:28:01.000Z,4.80
2018-07-19T19:30:29.193Z,6.10
2018-07-19T19:32:57.389Z,6.57
2018-07-19T19:35:25.573Z,6.80
2018-07-19T19:37:53.758Z,7.20
2018-07-19T19:40:21.957Z,5.90
2018-07-19T19:42:50.113Z,5.40
2018-07-19T19:45:18.321Z,4.70
2018-07-19T19:47:46.482Z,4.87
2018-07-19T19:50:14.654Z,4.77
2018-07-19T19:52:42.882Z,5.17
2018-07-19T19:55:11.069Z,4.67
2018-07-19T19:57:39.257Z,4.03
2018-07-19T20:00:07.430Z,4.03
2018-07-19T20:02:35.381Z,4.10
2018-07-19T20:05:03.562Z,4.27
2018-07-19T20:07:31.742Z,4.10
2018-07-19T20:09:59.990Z,3.90
2018-07-19T20:12:28.145Z,3.80
2018-07-19T20:14:56.362Z,3.77
2018-07-19T20:17:25.786Z,4.30
2018-07-19T20:19:53.953Z,4.00
2018-07-19T20:22:22.158Z,4.50
2018-07-19T20:24:50.302Z,4.13
2018-07-19T20:27:18.617Z,4.13
2018-07-19T20:29:46.822Z,4.93
2018-07-19T20:32:14.998Z,4.30
2018-07-19T20:34:43.175Z,4.70
2018-07-19T20:37:11.413Z,4.47
2018-07-19T20:39:39.694Z,5.50
2018-07-19T20:42:07.906Z,4.97
2018-07-19T20:44:36.094Z,4.87
2018-07-19T20:47:04.282Z,5.07
2018-07-19T20:49:32.543Z,5.13
2018-07-19T20:52:00.814Z,4.90
2018-07-19T20:54:28.979Z,4.77
2018-07-19T20:56:56.890Z,5.33
2018-07-19T20:59:24.826Z,4.83
2018-07-19T21:01:55.180Z,4.63
2018-07-19T21:04:23.142Z,4.90
2018-07-19T21:06:51.095Z,4.37
2018-07-19T21:09:19.031Z,4.63
2018-07-19T21:11:46.955Z,4.57
2018-07-19T21:14:14.876Z,4.83
2018-07-19T21:16:42.791Z,4.73
2018-07-19T21:19:10.983Z,4.60
2018-07-19T21:21:39.159Z,4.40
2018-07-19T21:24:07.348Z,4.70
2018-07-19T21:26:35.532Z,4.70
2018-07-19T21:29:04.007Z,4.40
2018-07-19T21:31:32.195Z,4.50
2018-07-19T21:34:00.365Z,4.30
2018-07-19T21:36:28.557Z,4.43
2018-07-19T21:38:56.783Z,4.70
2018-07-19T21:41:24.956Z,4.63
2018-07-19T21:43:53.160Z,3.83
2018-07-19T21:46:21.330Z,4.03
2018-07-19T21:48:49.481Z,4.50
2018-07-19T21:51:17.953Z,4.50
2018-07-19T21:53:46.174Z,4.40
2018-07-19T21:56:14.342Z,4.60
2018-07-19T21:58:42.492Z,4.57
2018-07-19T22:01:12.237Z,4.47
2018-07-19T22:03:40.621Z,4.30
2018-07-19T22:06:09.501Z,4.90
2018-07-19T22:08:37.414Z,4.27
2018-07-19T22:11:05.370Z,4.87
2018-07-19T22:13:33.386Z,4.40
2018-07-19T22:16:01.306Z,4.17
2018-07-19T22:18:29.242Z,4.40
2018-07-19T22:20:57.184Z,3.87
2018-07-19T22:23:25.110Z,3.90
2018-07-19T22:25:53.018Z,4.53
2018-07-19T22:28:20.942Z,4.67
2018-07-19T22:30:48.857Z,4.73
2018-07-19T22:33:16.929Z,4.87
2018-07-19T22:35:44.854Z,4.30
2018-07-19T22:38:12.794Z,4.50
2018-07-19T22:40:40.714Z,4.90
2018-07-19T22:43:08.846Z,4.47
2018-07-19T22:45:36.772Z,4.63
2018-07-19T22:48:04.707Z,4.70
2018-07-19T22:50:32.634Z,4.20
2018-07-19T22:53:00.558Z,4.77
2018-07-19T22:55:28.470Z,4.80
2018-07-19T22:57:56.475Z,5.40
2018-07-19T23:00:24.378Z,5.43
2018-07-19T23:02:52.290Z,5.80
2018-07-19T23:05:20.234Z,5.60
2018-07-19T23:07:48.142Z,6.00
2018-07-19T23:10:16.078Z,5.90
2018-07-19T23:12:44.079Z,6.13
2018-07-19T23:15:11.999Z,5.73
2018-07-19T23:17:39.915Z,5.60
2018-07-19T23:20:07.862Z,5.30
2018-07-19T23:22:35.795Z,5.43
2018-07-19T23:25:03.815Z,5.30
2018-07-19T23:27:31.747Z,5.53
2018-07-19T23:29:59.739Z,6.07
2018-07-19T23:32:27.655Z,5.43
2018-07-19T23:34:55.583Z,5.17
2018-07-19T23:37:32.871Z,6.00
2018-07-19T23:40:08.131Z,5.57
2018-07-19T23:42:39.163Z,5.60
2018-07-19T23:45:13.427Z,6.40
2018-07-19T23:47:42.756Z,5.50
2018-07-19T23:50:10.700Z,5.23
2018-07-19T23:52:38.615Z,5.60
2018-07-19T23:55:06.556Z,6.20
2018-07-19T23:57:34.684Z,5.97
